Aokimaru No.3 — JM6505 — position and weather

sailwx.info

Track history (hours):
 
Tides and Currents Weather Stations Pressure Air Temp Water Temp Dewpoint Dewpoint Depression Visibility Wind Speed Wind Dir Waves Ship Positions

Aokimaru No.3

Last reported at 2018-Feb-25 13:28 UTC. Time now 2018-Feb-25 13:36 UTC.
Position N 35°28' E 139°39'.

Length 71 m.

Type: Cargo ship. MMSI: 431600751.

Date/timePositionNaut miles runAvg speedWind from/ knotsBaromVisibWave heightAir tempDewpointWater temp
2018-Feb-25 13:28N 35°28' E 139°39'0 0.0
2018-Feb-25 12:58N 35°28' E 139°39'0 0.0
2018-Feb-25 12:28N 35°28' E 139°39'0 0.0
2018-Feb-25 11:58N 35°28' E 139°39'0 0.0
2018-Feb-25 11:28N 35°28' E 139°39'0 0.0
2018-Feb-25 10:58N 35°28' E 139°39'0 0.0
2018-Feb-25 10:28N 35°28' E 139°39'0 0.0
2018-Feb-25 09:58N 35°28' E 139°39'0 0.0
2018-Feb-25 09:28N 35°28' E 139°39'0 0.0
2018-Feb-25 08:58N 35°28' E 139°39'0 0.0
2018-Feb-25 08:28N 35°28' E 139°39'0 0.0
2018-Feb-25 07:58N 35°28' E 139°39'0 0.0
2018-Feb-25 07:28N 35°28' E 139°39'0 0.0
2018-Feb-25 06:58N 35°28' E 139°39'0 0.0
2018-Feb-25 06:28N 35°28' E 139°39'2 5.1
2018-Feb-25 06:00N 35°27' E 139°42'611.5
2018-Feb-25 05:30N 35°21' E 139°43'611.5
2018-Feb-25 05:00N 35°16' E 139°46'611.3
2018-Feb-25 04:30N 35°10' E 139°47'911.6
2018-Feb-25 03:42N 35°02' E 139°42'311.8
2018-Feb-25 03:29N 35°00' E 139°39'2712.0
2018-Feb-25 01:14N 34°45' E 139°12'511.7
2018-Feb-25 00:46N 34°42' E 139°07'311.3
2018-Feb-25 00:29N 34°40' E 139°04'2010.5
2018-Feb-24 22:37N 34°34' E 138°41'1511.4
2018-Feb-24 21:17N 34°32' E 138°23'412.3
2018-Feb-24 20:58N 34°32' E 138°18'812.7
2018-Feb-24 20:22N 34°32' E 138°09'320 9.5
2018-Feb-23 10:33N 33°09' E 131°56'112.6
2018-Feb-23 10:30N 33°10' E 131°57'612.7
2018-Feb-23 10:00N 33°16' E 131°59'913.8
2018-Feb-23 09:21N 33°24' E 132°02'514.0
2018-Feb-23 09:00N 33°28' E 132°07'3813.1
2018-Feb-23 06:04N 33°55' E 132°39'111.8
2018-Feb-23 06:00N 33°56' E 132°40'611.4
2018-Feb-23 05:30N 33°60' E 132°44'1 0.0
2018-Feb-22 05:40N 34°00' E 132°45'212.7
2018-Feb-22 05:29N 33°58' E 132°44'2112.5
2018-Feb-22 03:48N 33°44' E 132°26'412.7
2018-Feb-22 03:30N 33°41' E 132°22'2812.6
2018-Feb-22 01:17N 33°21' E 131°59'12 0.8
2018-Feb-21 10:37N 33°09' E 131°56'212.8
2018-Feb-21 10:29N 33°11' E 131°57'612.1
2018-Feb-21 10:00N 33°17' E 131°59'612.7
2018-Feb-21 09:30N 33°23' E 132°01'3613.5
2018-Feb-21 06:49N 33°49' E 132°31'613.1
2018-Feb-21 06:22N 33°53' E 132°36'512.8
2018-Feb-21 05:58N 33°56' E 132°40'612.0
2018-Feb-21 05:30N 34°00' E 132°45'0 0.0
2018-Feb-20 06:02N 34°01' E 132°45'011.5
2018-Feb-20 06:00N 34°00' E 132°45'611.3
2018-Feb-20 05:30N 33°56' E 132°41'1611.7
2018-Feb-20 04:08N 33°45' E 132°27'311.8
2018-Feb-20 03:52N 33°42' E 132°24'411.9
2018-Feb-20 03:30N 33°39' E 132°21'2012.2
2018-Feb-20 01:50N 33°25' E 132°03'413.1
2018-Feb-20 01:30N 33°22' E 131°59'10 1.0
2018-Feb-19 15:35N 33°12' E 131°55'313.0
2018-Feb-19 15:21N 33°16' E 131°55'513.1
2018-Feb-19 15:00N 33°19' E 131°52'712.7
2018-Feb-19 14:27N 33°26' E 131°50'612.4
2018-Feb-19 13:57N 33°32' E 131°48'512.2
2018-Feb-19 13:30N 33°37' E 131°45'612.5
2018-Feb-19 13:00N 33°41' E 131°39'611.9
2018-Feb-19 12:30N 33°44' E 131°33'612.0
2018-Feb-19 12:00N 33°46' E 131°26'612.3
2018-Feb-19 11:30N 33°49' E 131°20'611.8
2018-Feb-19 11:00N 33°52' E 131°14'5 9.2
2018-Feb-19 10:30N 33°57' E 131°14'0 0.1
2018-Feb-19 09:52N 33°57' E 131°14'0 0.0
2018-Feb-19 09:25N 33°57' E 131°14'0 0.0
2018-Feb-19 08:52N 33°57' E 131°14'0 0.0
2018-Feb-19 08:25N 33°57' E 131°14'0 0.0
2018-Feb-19 07:58N 33°57' E 131°14'0 0.0
2018-Feb-19 07:19N 33°57' E 131°14'0 0.0
2018-Feb-19 06:52N 33°57' E 131°14'0 0.0
2018-Feb-19 06:28N 33°57' E 131°14'0 0.0
2018-Feb-19 05:55N 33°57' E 131°14'0 0.0
2018-Feb-19 05:19N 33°57' E 131°14'0 0.0
2018-Feb-19 04:58N 33°57' E 131°14'0 0.0
2018-Feb-19 04:28N 33°57' E 131°14'0 0.0
2018-Feb-19 03:58N 33°57' E 131°14'0 0.0
2018-Feb-19 03:28N 33°57' E 131°14'0 0.0
2018-Feb-19 02:58N 33°57' E 131°14'0 0.0
2018-Feb-19 02:28N 33°57' E 131°14'0 0.0
2018-Feb-19 01:56N 33°57' E 131°14'1 1.3
2018-Feb-19 01:30N 33°57' E 131°13'1 1.8
2018-Feb-19 01:00N 33°56' E 131°14'0 0.2
2018-Feb-19 00:28N 33°56' E 131°14'0 0.0
2018-Feb-18 23:52N 33°56' E 131°14'0 0.0
2018-Feb-18 23:28N 33°56' E 131°14'0 0.0
2018-Feb-18 22:52N 33°56' E 131°14'0 0.0
2018-Feb-18 22:28N 33°56' E 131°14'0 0.0
2018-Feb-18 21:58N 33°56' E 131°14'0 0.0
2018-Feb-18 21:25N 33°56' E 131°14'0 0.0
2018-Feb-18 20:58N 33°56' E 131°14'0 0.0
2018-Feb-18 20:28N 33°56' E 131°14'0 0.0
2018-Feb-18 19:58N 33°56' E 131°14'0 0.0
2018-Feb-18 19:28N 33°56' E 131°14'0 0.0
2018-Feb-18 18:58N 33°56' E 131°14'0 0.0
2018-Feb-18 18:28N 33°56' E 131°14'0 0.0
2018-Feb-18 17:58N 33°56' E 131°14'0 0.0
2018-Feb-18 17:28N 33°56' E 131°14'0 0.0
2018-Feb-18 16:58N 33°56' E 131°14'0 0.0
2018-Feb-18 16:28N 33°56' E 131°14'0 0.0
2018-Feb-18 15:58N 33°56' E 131°14'0 0.0
2018-Feb-18 15:25N 33°56' E 131°14'0 0.0
2018-Feb-18 14:58N 33°56' E 131°14'0 0.0
2018-Feb-18 14:22N 33°56' E 131°14'0 0.0
2018-Feb-18 13:58N 33°56' E 131°14'0 0.0
2018-Feb-18 13:28N 33°56' E 131°14'0 0.0
2018-Feb-18 12:58N 33°56' E 131°14'0 0.0
2018-Feb-18 12:28N 33°56' E 131°14'0 0.0
2018-Feb-18 11:58N 33°56' E 131°14'0 0.0
2018-Feb-18 11:28N 33°56' E 131°14'0 0.0
2018-Feb-18 10:58N 33°56' E 131°14'0 0.0
2018-Feb-18 10:28N 33°56' E 131°14'0 0.0
2018-Feb-18 09:55N 33°56' E 131°14'0 0.0
2018-Feb-18 09:28N 33°56' E 131°14'0 0.0
2018-Feb-18 08:55N 33°56' E 131°14'0 0.0
2018-Feb-18 08:28N 33°56' E 131°14'0 0.0
2018-Feb-18 07:58N 33°56' E 131°14'0 0.0
2018-Feb-18 07:28N 33°56' E 131°14'0 0.0
2018-Feb-18 06:58N 33°56' E 131°14'0 0.0
2018-Feb-18 06:28N 33°56' E 131°14'0 0.0
2018-Feb-18 05:55N 33°56' E 131°14'0 0.0
2018-Feb-18 05:25N 33°56' E 131°14'0 0.0
2018-Feb-18 04:58N 33°56' E 131°14'0 0.0
2018-Feb-18 04:28N 33°56' E 131°14'0 0.0
2018-Feb-18 03:58N 33°56' E 131°14'0 0.0
2018-Feb-18 03:28N 33°56' E 131°14'0 0.0
2018-Feb-18 02:58N 33°56' E 131°14'0 0.0
2018-Feb-18 02:28N 33°56' E 131°14'0 0.0
2018-Feb-18 01:58N 33°56' E 131°14'0 0.0
2018-Feb-18 01:28N 33°56' E 131°14'0 0.0
2018-Feb-18 00:58N 33°56' E 131°14'0 0.0
2018-Feb-18 00:29N 33°56' E 131°14'2 4.9
2018-Feb-18 00:01N 33°54' E 131°13'611.5
2018-Feb-17 23:30N 33°52' E 131°19'612.9
2018-Feb-17 23:01N 33°51' E 131°27'613.0
2018-Feb-17 22:31N 33°50' E 131°35'713.1
2018-Feb-17 22:01N 33°48' E 131°43'612.8
2018-Feb-17 21:30N 33°47' E 131°50'612.5
2018-Feb-17 21:00N 33°46' E 131°57'611.9
2018-Feb-17 20:31N 33°46' E 132°05'612.7
2018-Feb-17 20:00N 33°50' E 132°11'612.4
2018-Feb-17 19:29N 33°50' E 132°19'1113.0
2018-Feb-17 18:36N 33°53' E 132°32'213.6
2018-Feb-17 18:30N 33°53' E 132°34'714.0
2018-Feb-17 17:59N 33°57' E 132°41'8611.3
2018-Feb-17 10:22N 34°22' E 134°21'411.4
2018-Feb-17 10:00N 34°20' E 134°26'611.3
2018-Feb-17 09:31N 34°18' E 134°32'611.0
2018-Feb-17 08:57N 34°15' E 134°39'710.2
2018-Feb-17 08:13N 34°09' E 134°44'211.5
2018-Feb-17 08:00N 34°07' E 134°46'611.5
2018-Feb-17 07:28N 34°03' E 134°51'511.3
2018-Feb-17 07:00N 33°59' E 134°55'610.9
2018-Feb-17 06:29N 33°54' E 134°59'710.8
2018-Feb-17 05:49N 33°49' E 135°06'15110.0
2018-Feb-16 14:46N 34°31' E 138°01'311.1
2018-Feb-16 14:28N 34°32' E 138°05'610.5
2018-Feb-16 13:52N 34°32' E 138°13'410.2
2018-Feb-16 13:31N 34°32' E 138°17'610.4
2018-Feb-16 12:58N 34°33' E 138°24'611.4
2018-Feb-16 12:27N 34°33' E 138°31'511.1
2018-Feb-16 11:59N 34°34' E 138°37'710.9
2018-Feb-16 11:22N 34°34' E 138°46'711.4
2018-Feb-16 10:47N 34°35' E 138°54'310.6
2018-Feb-16 10:28N 34°36' E 138°57'511.9
2018-Feb-16 10:00N 34°40' E 139°02'711.6
2018-Feb-16 09:26N 34°45' E 139°08'711.4
2018-Feb-16 08:52N 34°50' E 139°12'411.9
2018-Feb-16 08:30N 34°54' E 139°16'1011.0
2018-Feb-16 07:36N 34°59' E 139°26'1 9.8
2018-Feb-16 07:30N 34°59' E 139°27'510.6
2018-Feb-16 07:00N 35°02' E 139°32'611.4
2018-Feb-16 06:30N 35°05' E 139°38'612.2
2018-Feb-16 06:00N 35°09' E 139°44'611.6
2018-Feb-16 05:31N 35°15' E 139°46'611.4
2018-Feb-16 05:00N 35°20' E 139°43'510.9
2018-Feb-16 04:30N 35°25' E 139°43'611.8
2018-Feb-16 04:01N 35°28' E 139°49'612.0
2018-Feb-16 03:30N 35°31' E 139°56'611.6
2018-Feb-16 03:00N 35°32' E 140°03'0 0.7
2018-Feb-16 02:30N 35°32' E 140°03'0 0.0
2018-Feb-16 02:00N 35°32' E 140°03'0 0.0
2018-Feb-16 01:21N 35°32' E 140°03'0 0.0
2018-Feb-16 00:51N 35°32' E 140°03'0 0.0
2018-Feb-16 00:27N 35°32' E 140°03'0 0.0
2018-Feb-15 23:51N 35°32' E 140°03'0 0.1
2018-Feb-15 23:30N 35°32' E 140°03'1 1.2
2018-Feb-15 23:00N 35°32' E 140°03'510.0
2018-Feb-15 22:30N 35°28' E 139°59'1 0.3
2018-Feb-15 18:35N 35°27' E 139°59'0 0.0
2018-Feb-15 18:29N 35°27' E 139°59'  
Track history (hours):
 
Tides and Currents Weather Stations Pressure Air Temp Water Temp Dewpoint Dewpoint Depression Visibility Wind Speed Wind Dir Waves Ship Positions

Aokimaru No.3

Last reported at 2018-Feb-25 13:28 UTC. Time now 2018-Feb-25 13:36 UTC.
Position N 35°28' E 139°39'.

Length 71 m.

Type: Cargo ship. MMSI: 431600751.

Date/timePositionNaut miles runAvg speedWind from/ knotsBaromVisibWave heightAir tempDewpointWater temp
2018-Feb-25 13:28N 35°28' E 139°39'0 0.0
2018-Feb-25 12:58N 35°28' E 139°39'0 0.0
2018-Feb-25 12:28N 35°28' E 139°39'0 0.0
2018-Feb-25 11:58N 35°28' E 139°39'0 0.0
2018-Feb-25 11:28N 35°28' E 139°39'0 0.0
2018-Feb-25 10:58N 35°28' E 139°39'0 0.0
2018-Feb-25 10:28N 35°28' E 139°39'0 0.0
2018-Feb-25 09:58N 35°28' E 139°39'0 0.0
2018-Feb-25 09:28N 35°28' E 139°39'0 0.0
2018-Feb-25 08:58N 35°28' E 139°39'0 0.0
2018-Feb-25 08:28N 35°28' E 139°39'0 0.0
2018-Feb-25 07:58N 35°28' E 139°39'0 0.0
2018-Feb-25 07:28N 35°28' E 139°39'0 0.0
2018-Feb-25 06:58N 35°28' E 139°39'0 0.0
2018-Feb-25 06:28N 35°28' E 139°39'2 5.1
2018-Feb-25 06:00N 35°27' E 139°42'611.5
2018-Feb-25 05:30N 35°21' E 139°43'611.5
2018-Feb-25 05:00N 35°16' E 139°46'611.3
2018-Feb-25 04:30N 35°10' E 139°47'911.6
2018-Feb-25 03:42N 35°02' E 139°42'311.8
2018-Feb-25 03:29N 35°00' E 139°39'2712.0
2018-Feb-25 01:14N 34°45' E 139°12'511.7
2018-Feb-25 00:46N 34°42' E 139°07'311.3
2018-Feb-25 00:29N 34°40' E 139°04'2010.5
2018-Feb-24 22:37N 34°34' E 138°41'1511.4
2018-Feb-24 21:17N 34°32' E 138°23'412.3
2018-Feb-24 20:58N 34°32' E 138°18'812.7
2018-Feb-24 20:22N 34°32' E 138°09'320 9.5
2018-Feb-23 10:33N 33°09' E 131°56'112.6
2018-Feb-23 10:30N 33°10' E 131°57'612.7
2018-Feb-23 10:00N 33°16' E 131°59'913.8
2018-Feb-23 09:21N 33°24' E 132°02'514.0
2018-Feb-23 09:00N 33°28' E 132°07'3813.1
2018-Feb-23 06:04N 33°55' E 132°39'111.8
2018-Feb-23 06:00N 33°56' E 132°40'611.4
2018-Feb-23 05:30N 33°60' E 132°44'1 0.0
2018-Feb-22 05:40N 34°00' E 132°45'212.7
2018-Feb-22 05:29N 33°58' E 132°44'2112.5
2018-Feb-22 03:48N 33°44' E 132°26'412.7
2018-Feb-22 03:30N 33°41' E 132°22'2812.6
2018-Feb-22 01:17N 33°21' E 131°59'12 0.8
2018-Feb-21 10:37N 33°09' E 131°56'212.8
2018-Feb-21 10:29N 33°11' E 131°57'612.1
2018-Feb-21 10:00N 33°17' E 131°59'612.7
2018-Feb-21 09:30N 33°23' E 132°01'3613.5
2018-Feb-21 06:49N 33°49' E 132°31'613.1
2018-Feb-21 06:22N 33°53' E 132°36'512.8
2018-Feb-21 05:58N 33°56' E 132°40'612.0
2018-Feb-21 05:30N 34°00' E 132°45'0 0.0
2018-Feb-20 06:02N 34°01' E 132°45'011.5
2018-Feb-20 06:00N 34°00' E 132°45'611.3
2018-Feb-20 05:30N 33°56' E 132°41'1611.7
2018-Feb-20 04:08N 33°45' E 132°27'311.8
2018-Feb-20 03:52N 33°42' E 132°24'411.9
2018-Feb-20 03:30N 33°39' E 132°21'2012.2
2018-Feb-20 01:50N 33°25' E 132°03'413.1
2018-Feb-20 01:30N 33°22' E 131°59'10 1.0
2018-Feb-19 15:35N 33°12' E 131°55'313.0
2018-Feb-19 15:21N 33°16' E 131°55'513.1
2018-Feb-19 15:00N 33°19' E 131°52'712.7
2018-Feb-19 14:27N 33°26' E 131°50'612.4
2018-Feb-19 13:57N 33°32' E 131°48'512.2
2018-Feb-19 13:30N 33°37' E 131°45'612.5
2018-Feb-19 13:00N 33°41' E 131°39'611.9
2018-Feb-19 12:30N 33°44' E 131°33'612.0
2018-Feb-19 12:00N 33°46' E 131°26'612.3
2018-Feb-19 11:30N 33°49' E 131°20'611.8
2018-Feb-19 11:00N 33°52' E 131°14'5 9.2
2018-Feb-19 10:30N 33°57' E 131°14'0 0.1
2018-Feb-19 09:52N 33°57' E 131°14'0 0.0
2018-Feb-19 09:25N 33°57' E 131°14'0 0.0
2018-Feb-19 08:52N 33°57' E 131°14'0 0.0
2018-Feb-19 08:25N 33°57' E 131°14'0 0.0
2018-Feb-19 07:58N 33°57' E 131°14'0 0.0
2018-Feb-19 07:19N 33°57' E 131°14'0 0.0
2018-Feb-19 06:52N 33°57' E 131°14'0 0.0
2018-Feb-19 06:28N 33°57' E 131°14'0 0.0
2018-Feb-19 05:55N 33°57' E 131°14'0 0.0
2018-Feb-19 05:19N 33°57' E 131°14'0 0.0
2018-Feb-19 04:58N 33°57' E 131°14'0 0.0
2018-Feb-19 04:28N 33°57' E 131°14'0 0.0
2018-Feb-19 03:58N 33°57' E 131°14'0 0.0
2018-Feb-19 03:28N 33°57' E 131°14'0 0.0
2018-Feb-19 02:58N 33°57' E 131°14'0 0.0
2018-Feb-19 02:28N 33°57' E 131°14'0 0.0
2018-Feb-19 01:56N 33°57' E 131°14'1 1.3
2018-Feb-19 01:30N 33°57' E 131°13'1 1.8
2018-Feb-19 01:00N 33°56' E 131°14'0 0.2
2018-Feb-19 00:28N 33°56' E 131°14'0 0.0
2018-Feb-18 23:52N 33°56' E 131°14'0 0.0
2018-Feb-18 23:28N 33°56' E 131°14'0 0.0
2018-Feb-18 22:52N 33°56' E 131°14'0 0.0
2018-Feb-18 22:28N 33°56' E 131°14'0 0.0
2018-Feb-18 21:58N 33°56' E 131°14'0 0.0
2018-Feb-18 21:25N 33°56' E 131°14'0 0.0
2018-Feb-18 20:58N 33°56' E 131°14'0 0.0
2018-Feb-18 20:28N 33°56' E 131°14'0 0.0
2018-Feb-18 19:58N 33°56' E 131°14'0 0.0
2018-Feb-18 19:28N 33°56' E 131°14'0 0.0
2018-Feb-18 18:58N 33°56' E 131°14'0 0.0
2018-Feb-18 18:28N 33°56' E 131°14'0 0.0
2018-Feb-18 17:58N 33°56' E 131°14'0 0.0
2018-Feb-18 17:28N 33°56' E 131°14'0 0.0
2018-Feb-18 16:58N 33°56' E 131°14'0 0.0
2018-Feb-18 16:28N 33°56' E 131°14'0 0.0
2018-Feb-18 15:58N 33°56' E 131°14'0 0.0
2018-Feb-18 15:25N 33°56' E 131°14'0 0.0
2018-Feb-18 14:58N 33°56' E 131°14'0 0.0
2018-Feb-18 14:22N 33°56' E 131°14'0 0.0
2018-Feb-18 13:58N 33°56' E 131°14'0 0.0
2018-Feb-18 13:28N 33°56' E 131°14'0 0.0
2018-Feb-18 12:58N 33°56' E 131°14'0 0.0
2018-Feb-18 12:28N 33°56' E 131°14'0 0.0
2018-Feb-18 11:58N 33°56' E 131°14'0 0.0
2018-Feb-18 11:28N 33°56' E 131°14'0 0.0
2018-Feb-18 10:58N 33°56' E 131°14'0 0.0
2018-Feb-18 10:28N 33°56' E 131°14'0 0.0
2018-Feb-18 09:55N 33°56' E 131°14'0 0.0
2018-Feb-18 09:28N 33°56' E 131°14'0 0.0
2018-Feb-18 08:55N 33°56' E 131°14'0 0.0
2018-Feb-18 08:28N 33°56' E 131°14'0 0.0
2018-Feb-18 07:58N 33°56' E 131°14'0 0.0
2018-Feb-18 07:28N 33°56' E 131°14'0 0.0
2018-Feb-18 06:58N 33°56' E 131°14'0 0.0
2018-Feb-18 06:28N 33°56' E 131°14'0 0.0
2018-Feb-18 05:55N 33°56' E 131°14'0 0.0
2018-Feb-18 05:25N 33°56' E 131°14'0 0.0
2018-Feb-18 04:58N 33°56' E 131°14'0 0.0
2018-Feb-18 04:28N 33°56' E 131°14'0 0.0
2018-Feb-18 03:58N 33°56' E 131°14'0 0.0
2018-Feb-18 03:28N 33°56' E 131°14'0 0.0
2018-Feb-18 02:58N 33°56' E 131°14'0 0.0
2018-Feb-18 02:28N 33°56' E 131°14'0 0.0
2018-Feb-18 01:58N 33°56' E 131°14'0 0.0
2018-Feb-18 01:28N 33°56' E 131°14'0 0.0
2018-Feb-18 00:58N 33°56' E 131°14'0 0.0
2018-Feb-18 00:29N 33°56' E 131°14'2 4.9
2018-Feb-18 00:01N 33°54' E 131°13'611.5
2018-Feb-17 23:30N 33°52' E 131°19'612.9
2018-Feb-17 23:01N 33°51' E 131°27'613.0
2018-Feb-17 22:31N 33°50' E 131°35'713.1
2018-Feb-17 22:01N 33°48' E 131°43'612.8
2018-Feb-17 21:30N 33°47' E 131°50'612.5
2018-Feb-17 21:00N 33°46' E 131°57'611.9
2018-Feb-17 20:31N 33°46' E 132°05'612.7
2018-Feb-17 20:00N 33°50' E 132°11'612.4
2018-Feb-17 19:29N 33°50' E 132°19'1113.0
2018-Feb-17 18:36N 33°53' E 132°32'213.6
2018-Feb-17 18:30N 33°53' E 132°34'714.0
2018-Feb-17 17:59N 33°57' E 132°41'8611.3
2018-Feb-17 10:22N 34°22' E 134°21'411.4
2018-Feb-17 10:00N 34°20' E 134°26'611.3
2018-Feb-17 09:31N 34°18' E 134°32'611.0
2018-Feb-17 08:57N 34°15' E 134°39'710.2
2018-Feb-17 08:13N 34°09' E 134°44'211.5
2018-Feb-17 08:00N 34°07' E 134°46'611.5
2018-Feb-17 07:28N 34°03' E 134°51'511.3
2018-Feb-17 07:00N 33°59' E 134°55'610.9
2018-Feb-17 06:29N 33°54' E 134°59'710.8
2018-Feb-17 05:49N 33°49' E 135°06'15110.0
2018-Feb-16 14:46N 34°31' E 138°01'311.1
2018-Feb-16 14:28N 34°32' E 138°05'610.5
2018-Feb-16 13:52N 34°32' E 138°13'410.2
2018-Feb-16 13:31N 34°32' E 138°17'610.4
2018-Feb-16 12:58N 34°33' E 138°24'611.4
2018-Feb-16 12:27N 34°33' E 138°31'511.1
2018-Feb-16 11:59N 34°34' E 138°37'710.9
2018-Feb-16 11:22N 34°34' E 138°46'711.4
2018-Feb-16 10:47N 34°35' E 138°54'310.6
2018-Feb-16 10:28N 34°36' E 138°57'511.9
2018-Feb-16 10:00N 34°40' E 139°02'711.6
2018-Feb-16 09:26N 34°45' E 139°08'711.4
2018-Feb-16 08:52N 34°50' E 139°12'411.9
2018-Feb-16 08:30N 34°54' E 139°16'1011.0
2018-Feb-16 07:36N 34°59' E 139°26'1 9.8
2018-Feb-16 07:30N 34°59' E 139°27'510.6
2018-Feb-16 07:00N 35°02' E 139°32'611.4
2018-Feb-16 06:30N 35°05' E 139°38'612.2
2018-Feb-16 06:00N 35°09' E 139°44'611.6
2018-Feb-16 05:31N 35°15' E 139°46'611.4
2018-Feb-16 05:00N 35°20' E 139°43'510.9
2018-Feb-16 04:30N 35°25' E 139°43'611.8
2018-Feb-16 04:01N 35°28' E 139°49'612.0
2018-Feb-16 03:30N 35°31' E 139°56'611.6
2018-Feb-16 03:00N 35°32' E 140°03'0 0.7
2018-Feb-16 02:30N 35°32' E 140°03'0 0.0
2018-Feb-16 02:00N 35°32' E 140°03'0 0.0
2018-Feb-16 01:21N 35°32' E 140°03'0 0.0
2018-Feb-16 00:51N 35°32' E 140°03'0 0.0
2018-Feb-16 00:27N 35°32' E 140°03'0 0.0
2018-Feb-15 23:51N 35°32' E 140°03'0 0.1
2018-Feb-15 23:30N 35°32' E 140°03'1 1.2
2018-Feb-15 23:00N 35°32' E 140°03'510.0
2018-Feb-15 22:30N 35°28' E 139°59'1 0.3
2018-Feb-15 18:35N 35°27' E 139°59'0 0.0
2018-Feb-15 18:29N 35°27' E 139°59'  

Dump ship's entire track history